createdAt,value
2023-04-20T00:00:05.278Z,22.04
2023-04-20T00:01:05.299Z,22.04
2023-04-20T00:02:05.328Z,22.01
2023-04-20T00:03:05.392Z,21.98
2023-04-20T00:04:05.393Z,21.94
2023-04-20T00:05:05.346Z,21.95
2023-04-20T00:06:05.456Z,22.02
2023-04-20T00:07:05.290Z,22.06
2023-04-20T00:08:05.292Z,21.99
2023-04-20T00:09:05.291Z,22.07
2023-04-20T00:10:05.298Z,22.04
2023-04-20T00:11:05.303Z,21.98
2023-04-20T00:12:05.306Z,21.97
2023-04-20T00:13:05.302Z,21.94
2023-04-20T00:14:05.325Z,22.07
2023-04-20T00:15:05.347Z,22.01
2023-04-20T00:16:05.339Z,22.04
2023-04-20T00:17:05.344Z,22.07
2023-04-20T00:18:05.344Z,21.95
2023-04-20T00:19:05.317Z,21.95
2023-04-20T00:20:05.344Z,21.98
2023-04-20T00:21:05.384Z,21.97
2023-04-20T00:22:05.325Z,21.94
2023-04-20T00:23:05.333Z,21.98
2023-04-20T00:24:05.331Z,21.98
2023-04-20T00:25:05.324Z,21.94
2023-04-20T00:26:05.345Z,21.91
2023-04-20T00:27:05.348Z,21.98
2023-04-20T00:28:05.339Z,21.97
2023-04-20T00:29:05.325Z,21.95
2023-04-20T00:30:05.337Z,21.95
2023-04-20T00:31:05.429Z,21.98
2023-04-20T00:32:05.339Z,21.94
2023-04-20T00:33:05.378Z,21.95
2023-04-20T00:34:05.367Z,21.94
2023-04-20T00:35:05.341Z,21.95
2023-04-20T00:36:05.339Z,21.99
2023-04-20T00:37:05.348Z,21.95
2023-04-20T00:38:05.342Z,21.94
2023-04-20T00:39:05.350Z,22.01
2023-04-20T00:40:05.374Z,22.07
2023-04-20T00:41:05.351Z,21.92
2023-04-20T00:42:05.376Z,21.99
2023-04-20T00:43:05.355Z,22.02
2023-04-20T00:44:05.363Z,21.97
2023-04-20T00:45:05.359Z,21.95
2023-04-20T00:46:05.376Z,21.98
2023-04-20T00:47:05.384Z,21.92
2023-04-20T00:48:05.499Z,22.02
2023-04-20T00:49:05.365Z,22.02
2023-04-20T00:50:05.366Z,21.92
2023-04-20T00:51:05.367Z,21.99
2023-04-20T00:52:05.367Z,21.99
2023-04-20T00:53:05.364Z,21.98
2023-04-20T00:54:05.384Z,21.95
2023-04-20T00:55:05.371Z,21.98
2023-04-20T00:56:05.395Z,22.01
2023-04-20T00:57:05.374Z,21.95
2023-04-20T00:58:05.379Z,22.01
2023-04-20T00:59:05.382Z,22.01
2023-04-20T01:00:05.386Z,21.92
2023-04-20T01:01:05.381Z,21.99
2023-04-20T01:02:05.495Z,21.95
2023-04-20T01:03:05.549Z,21.98
2023-04-20T01:04:05.537Z,22.01
2023-04-20T01:05:05.389Z,22.02
2023-04-20T01:06:05.391Z,21.95
2023-04-20T01:07:05.396Z,21.95
2023-04-20T01:08:05.394Z,21.97
2023-04-20T01:09:05.395Z,21.95
2023-04-20T01:10:05.399Z,21.92
2023-04-20T01:11:05.402Z,22.04
2023-04-20T01:12:05.413Z,21.98
2023-04-20T01:13:05.405Z,22.01
2023-04-20T01:14:05.407Z,21.99
2023-04-20T01:15:05.412Z,21.92
2023-04-20T01:16:05.448Z,21.94
2023-04-20T01:17:05.433Z,21.95
2023-04-20T01:18:05.502Z,21.97
2023-04-20T01:19:05.432Z,22.01
2023-04-20T01:20:05.533Z,22.02
2023-04-20T01:21:05.434Z,21.95
2023-04-20T01:22:05.431Z,21.94
2023-04-20T01:23:05.428Z,21.95
2023-04-20T01:24:05.432Z,21.95
2023-04-20T01:25:05.423Z,21.99
2023-04-20T01:26:05.425Z,22.01
2023-04-20T01:27:05.431Z,21.98
2023-04-20T01:28:05.453Z,21.95
2023-04-20T01:29:05.435Z,21.99
2023-04-20T01:30:05.442Z,21.99
2023-04-20T01:31:05.463Z,21.95
2023-04-20T01:32:05.443Z,22.01
2023-04-20T01:33:05.460Z,21.92
2023-04-20T01:34:05.438Z,21.94
2023-04-20T01:35:05.564Z,21.92
2023-04-20T01:36:05.608Z,22.01
2023-04-20T01:37:05.447Z,21.92
2023-04-20T01:38:05.460Z,21.94
2023-04-20T01:39:05.465Z,21.92
2023-04-20T01:40:05.456Z,21.95
2023-04-20T01:41:05.467Z,21.92
2023-04-20T01:42:05.471Z,21.95
2023-04-20T01:43:05.477Z,21.97
2023-04-20T01:44:05.469Z,22.01
2023-04-20T01:45:05.469Z,21.97
2023-04-20T01:46:05.464Z,22.01
2023-04-20T01:47:05.483Z,21.92
2023-04-20T01:48:05.524Z,21.95
2023-04-20T01:49:05.465Z,21.97
2023-04-20T01:50:05.497Z,21.98
2023-04-20T01:51:05.498Z,21.95
2023-04-20T01:52:05.485Z,21.99
2023-04-20T01:53:05.483Z,21.95
2023-04-20T01:54:05.494Z,22.01
2023-04-20T01:55:05.481Z,21.95
2023-04-20T01:56:05.490Z,22.01
2023-04-20T01:57:05.490Z,21.91
2023-04-20T01:58:05.501Z,21.94
2023-04-20T01:59:05.510Z,22.01
2023-04-20T02:00:05.492Z,21.99
2023-04-20T02:01:05.564Z,21.90
2023-04-20T02:02:05.578Z,21.95
2023-04-20T02:03:05.580Z,21.91
2023-04-20T02:04:05.570Z,21.99
2023-04-20T02:05:05.509Z,21.98
2023-04-20T02:06:05.501Z,22.02
2023-04-20T02:07:05.534Z,21.94
2023-04-20T02:08:05.516Z,21.92
2023-04-20T02:09:05.516Z,21.91
2023-04-20T02:10:05.510Z,21.97
2023-04-20T02:11:05.661Z,21.95
2023-04-20T02:12:05.516Z,21.90
2023-04-20T02:13:05.518Z,21.99
2023-04-20T02:14:05.516Z,21.92
2023-04-20T02:15:05.522Z,21.97
2023-04-20T02:16:05.521Z,21.94
2023-04-20T02:17:05.556Z,22.01
2023-04-20T02:18:05.579Z,21.85
2023-04-20T02:19:05.526Z,21.91
2023-04-20T02:20:05.534Z,21.94
2023-04-20T02:21:05.522Z,21.95
2023-04-20T02:22:05.538Z,21.97
2023-04-20T02:23:05.561Z,21.94
2023-04-20T02:24:05.535Z,21.91
2023-04-20T02:25:05.534Z,21.92
2023-04-20T02:26:05.529Z,21.97
2023-04-20T02:27:05.539Z,21.97
2023-04-20T02:28:05.551Z,21.99
2023-04-20T02:29:05.534Z,21.97
2023-04-20T02:30:05.537Z,21.85
2023-04-20T02:31:05.558Z,21.97
2023-04-20T02:32:05.546Z,21.94
2023-04-20T02:33:05.663Z,21.97
2023-04-20T02:34:05.540Z,21.90
2023-04-20T02:35:05.552Z,21.91
2023-04-20T02:36:05.559Z,21.88
2023-04-20T02:37:05.561Z,21.92
2023-04-20T02:38:05.556Z,21.92
2023-04-20T02:39:05.576Z,21.94
2023-04-20T02:40:05.558Z,21.92
2023-04-20T02:41:05.553Z,21.92
2023-04-20T02:42:05.560Z,21.92
2023-04-20T02:43:05.558Z,21.92
2023-04-20T02:44:05.581Z,21.94
2023-04-20T02:45:05.563Z,21.95
2023-04-20T02:46:05.597Z,21.97
2023-04-20T02:47:05.588Z,21.99
2023-04-20T02:48:05.571Z,21.92
2023-04-20T02:49:05.596Z,21.91
2023-04-20T02:50:05.588Z,21.99
2023-04-20T02:51:05.581Z,21.92
2023-04-20T02:52:05.579Z,21.97
2023-04-20T02:53:05.584Z,21.83
2023-04-20T02:54:05.587Z,21.91
2023-04-20T02:55:05.603Z,21.88
2023-04-20T02:56:05.588Z,21.95
2023-04-20T02:57:05.593Z,21.97
2023-04-20T02:58:05.588Z,21.88
2023-04-20T02:59:05.588Z,21.90
2023-04-20T03:00:05.586Z,21.92
2023-04-20T03:01:05.642Z,21.91
2023-04-20T03:02:05.705Z,21.90
2023-04-20T03:03:05.695Z,21.94
2023-04-20T03:04:05.738Z,21.92
2023-04-20T03:05:05.598Z,21.94
2023-04-20T03:06:05.771Z,21.91
2023-04-20T03:07:05.614Z,21.91
2023-04-20T03:08:05.608Z,21.97
2023-04-20T03:09:05.615Z,21.95
2023-04-20T03:10:05.614Z,21.83
2023-04-20T03:11:05.634Z,21.97
2023-04-20T03:12:05.622Z,21.91
2023-04-20T03:13:05.608Z,21.91
2023-04-20T03:14:05.614Z,21.94
2023-04-20T03:15:05.615Z,21.99
2023-04-20T03:16:05.793Z,21.94
2023-04-20T03:17:05.626Z,21.94
2023-04-20T03:18:05.660Z,21.92
2023-04-20T03:19:05.619Z,21.97
2023-04-20T03:20:05.628Z,21.97
2023-04-20T03:21:05.624Z,21.94
2023-04-20T03:22:05.626Z,21.98
2023-04-20T03:23:05.639Z,21.91
2023-04-20T03:24:05.630Z,21.94
2023-04-20T03:25:05.627Z,21.94
2023-04-20T03:26:05.620Z,21.97
2023-04-20T03:27:05.658Z,21.95
2023-04-20T03:28:05.634Z,21.94
2023-04-20T03:29:05.638Z,21.88
2023-04-20T03:30:05.651Z,21.85
2023-04-20T03:31:05.737Z,21.88
2023-04-20T03:32:05.742Z,21.94
2023-04-20T03:33:05.741Z,21.95
2023-04-20T03:34:05.644Z,21.88
2023-04-20T03:35:05.644Z,21.92
2023-04-20T03:36:05.649Z,21.97
2023-04-20T03:37:05.654Z,21.92
2023-04-20T03:38:05.647Z,21.92
2023-04-20T03:39:05.650Z,21.99
2023-04-20T03:40:05.656Z,21.97
2023-04-20T03:41:05.659Z,21.98
2023-04-20T03:42:05.657Z,21.94
2023-04-20T03:43:05.871Z,21.97
2023-04-20T03:44:05.654Z,21.97
2023-04-20T03:45:05.685Z,21.91
2023-04-20T03:46:05.707Z,21.92
2023-04-20T03:47:05.668Z,21.95
2023-04-20T03:48:05.768Z,21.92
2023-04-20T03:49:05.673Z,21.94
2023-04-20T03:50:05.675Z,21.92
2023-04-20T03:51:05.725Z,21.97
2023-04-20T03:52:05.672Z,21.97
2023-04-20T03:53:05.675Z,21.95
2023-04-20T03:54:05.674Z,21.83
2023-04-20T03:55:05.679Z,21.94
2023-04-20T03:56:05.673Z,21.97
2023-04-20T03:57:05.677Z,21.95
2023-04-20T03:58:05.690Z,21.95
2023-04-20T03:59:05.712Z,21.90
2023-04-20T04:00:05.685Z,21.97
2023-04-20T04:01:05.683Z,21.88
2023-04-20T04:02:05.848Z,21.95
2023-04-20T04:03:05.822Z,22.01
2023-04-20T04:04:06.214Z,21.99
2023-04-20T04:05:05.765Z,21.91
2023-04-20T04:06:05.696Z,21.94
2023-04-20T04:07:05.700Z,21.97
2023-04-20T04:08:05.697Z,21.94
2023-04-20T04:09:05.717Z,21.76
2023-04-20T04:10:05.710Z,21.71
2023-04-20T04:11:05.703Z,21.54
2023-04-20T04:12:05.704Z,21.51
2023-04-20T04:13:05.712Z,21.61
2023-04-20T04:14:05.721Z,21.66
2023-04-20T04:15:05.749Z,21.72
2023-04-20T04:16:05.712Z,21.82
2023-04-20T04:17:05.757Z,21.85
2023-04-20T04:18:05.761Z,21.85
2023-04-20T04:19:05.713Z,21.88
2023-04-20T04:20:05.716Z,21.83
2023-04-20T04:21:05.720Z,21.97
2023-04-20T04:22:05.724Z,21.91
2023-04-20T04:23:05.723Z,21.97
2023-04-20T04:24:05.721Z,21.95
2023-04-20T04:25:05.730Z,22.01
2023-04-20T04:26:05.734Z,21.94
2023-04-20T04:27:05.728Z,21.97
2023-04-20T04:28:05.738Z,21.97
2023-04-20T04:29:05.725Z,22.02
2023-04-20T04:30:05.734Z,21.99
2023-04-20T04:31:05.767Z,22.04
2023-04-20T04:32:05.758Z,21.95
2023-04-20T04:33:05.768Z,22.06
2023-04-20T04:34:05.746Z,22.07
2023-04-20T04:35:05.762Z,21.95
2023-04-20T04:36:05.824Z,22.07
2023-04-20T04:37:05.750Z,22.04
2023-04-20T04:38:05.746Z,22.04
2023-04-20T04:39:05.751Z,21.95
2023-04-20T04:40:05.755Z,22.07
2023-04-20T04:41:05.753Z,22.01
2023-04-20T04:42:05.759Z,21.99
2023-04-20T04:43:05.764Z,22.09
2023-04-20T04:44:05.758Z,22.02
2023-04-20T04:45:05.781Z,22.06
2023-04-20T04:46:05.780Z,22.02
2023-04-20T04:47:05.793Z,22.12
2023-04-20T04:48:08.145Z,22.09
2023-04-20T04:49:05.804Z,22.07
2023-04-20T04:50:05.778Z,22.07
2023-04-20T04:51:05.921Z,22.02
2023-04-20T04:52:05.772Z,22.07
2023-04-20T04:53:05.772Z,22.12
2023-04-20T04:54:05.771Z,22.07
2023-04-20T04:55:05.779Z,22.07
2023-04-20T04:56:05.775Z,22.01
2023-04-20T04:57:05.777Z,21.81
2023-04-20T04:58:05.791Z,21.72
2023-04-20T04:59:05.791Z,21.05
2023-04-20T05:00:05.793Z,19.76
2023-04-20T05:01:05.794Z,19.40
2023-04-20T05:02:05.928Z,18.70
2023-04-20T05:03:06.009Z,18.24
2023-04-20T05:04:05.894Z,17.85
2023-04-20T05:05:07.017Z,17.89
2023-04-20T05:06:05.795Z,18.04
2023-04-20T05:07:05.809Z,17.95
2023-04-20T05:08:05.795Z,17.99
2023-04-20T05:09:05.797Z,17.87
2023-04-20T05:10:05.809Z,17.89
2023-04-20T05:11:05.804Z,18.50
2023-04-20T05:12:05.801Z,19.29
2023-04-20T05:13:05.826Z,19.69
2023-04-20T05:14:05.806Z,20.09
2023-04-20T05:15:05.810Z,20.43
2023-04-20T05:16:05.885Z,20.65
2023-04-20T05:17:05.815Z,20.86
2023-04-20T05:18:05.839Z,20.99
2023-04-20T05:19:06.386Z,21.06
2023-04-20T05:20:05.811Z,21.11
2023-04-20T05:21:05.808Z,21.17
2023-04-20T05:22:05.813Z,21.23
2023-04-20T05:23:05.811Z,21.29
2023-04-20T05:24:05.815Z,21.24
2023-04-20T05:25:05.821Z,20.18
2023-04-20T05:26:05.811Z,19.51
2023-04-20T05:27:05.828Z,18.90
2023-04-20T05:28:05.816Z,18.43
2023-04-20T05:29:05.838Z,18.03
2023-04-20T05:30:17.045Z,18.03
2023-04-20T05:31:05.819Z,17.87
2023-04-20T05:32:05.899Z,17.81
2023-04-20T05:33:05.910Z,17.66
2023-04-20T05:34:05.828Z,17.55
2023-04-20T05:35:05.850Z,17.54
2023-04-20T05:36:05.825Z,17.47
2023-04-20T05:37:05.840Z,17.33
2023-04-20T05:38:05.838Z,17.55
2023-04-20T05:39:05.820Z,17.69
2023-04-20T05:40:05.846Z,17.55
2023-04-20T05:41:05.838Z,17.35
2023-04-20T05:42:05.827Z,17.48
2023-04-20T05:43:05.830Z,17.47
2023-04-20T05:44:05.836Z,17.32
2023-04-20T05:45:05.848Z,17.18
2023-04-20T05:46:05.854Z,17.22
2023-04-20T05:47:05.831Z,17.18
2023-04-20T05:48:05.889Z,17.14
2023-04-20T05:49:05.836Z,17.20
2023-04-20T05:50:05.837Z,17.64
2023-04-20T05:51:05.854Z,17.91
2023-04-20T05:52:05.836Z,18.39
2023-04-20T05:53:05.832Z,18.46
2023-04-20T05:54:05.830Z,18.67
2023-04-20T05:55:05.834Z,18.29
2023-04-20T05:56:05.836Z,17.91
2023-04-20T05:57:05.837Z,17.73
2023-04-20T05:58:05.835Z,17.84
2023-04-20T05:59:05.847Z,17.63
2023-04-20T06:00:05.840Z,17.53
2023-04-20T06:01:05.829Z,17.55
2023-04-20T06:02:05.866Z,17.54
2023-04-20T06:03:06.001Z,17.41
2023-04-20T06:04:06.090Z,17.23
2023-04-20T06:05:05.891Z,17.35
2023-04-20T06:06:05.840Z,17.23
2023-04-20T06:07:05.858Z,17.25
2023-04-20T06:08:05.835Z,17.18
2023-04-20T06:09:05.845Z,17.20
2023-04-20T06:10:05.841Z,17.15
2023-04-20T06:11:05.839Z,17.14
2023-04-20T06:12:05.860Z,17.07
2023-04-20T06:13:05.847Z,17.13
2023-04-20T06:14:05.838Z,17.10
2023-04-20T06:15:05.863Z,17.17
2023-04-20T06:16:05.863Z,17.18
2023-04-20T06:17:05.842Z,17.23
2023-04-20T06:18:05.885Z,17.22
2023-04-20T06:19:05.835Z,17.13
2023-04-20T06:20:05.842Z,17.13
2023-04-20T06:21:05.840Z,17.25
2023-04-20T06:22:05.839Z,17.40
2023-04-20T06:23:05.928Z,17.33
2023-04-20T06:24:05.841Z,17.29
2023-04-20T06:25:05.851Z,17.23
2023-04-20T06:26:05.843Z,17.22
2023-04-20T06:27:05.842Z,17.15
2023-04-20T06:28:05.839Z,17.22
2023-04-20T06:29:05.829Z,17.30
2023-04-20T06:30:05.863Z,17.35
2023-04-20T06:31:05.862Z,17.20
2023-04-20T06:32:05.844Z,17.33
2023-04-20T06:33:05.872Z,17.66
2023-04-20T06:34:05.837Z,18.00
2023-04-20T06:35:05.873Z,18.40
2023-04-20T06:36:05.847Z,18.73
2023-04-20T06:37:05.833Z,18.73
2023-04-20T06:38:05.833Z,18.72
2023-04-20T06:39:05.860Z,18.73
2023-04-20T06:40:05.855Z,18.55
2023-04-20T06:41:05.934Z,18.40
2023-04-20T06:42:05.828Z,18.49
2023-04-20T06:43:05.845Z,18.70
2023-04-20T06:44:05.839Z,18.80
2023-04-20T06:45:05.835Z,18.98
2023-04-20T06:46:05.840Z,19.35
2023-04-20T06:47:05.863Z,19.53
2023-04-20T06:48:05.928Z,19.72
2023-04-20T06:49:05.829Z,19.73
2023-04-20T06:50:05.861Z,19.93
2023-04-20T06:51:05.833Z,20.03
2023-04-20T06:52:05.832Z,20.09
2023-04-20T06:53:05.828Z,20.13
2023-04-20T06:54:05.835Z,20.28
2023-04-20T06:55:06.007Z,20.25
2023-04-20T06:56:05.829Z,20.31
2023-04-20T06:57:05.833Z,20.33
2023-04-20T06:58:05.833Z,20.33
2023-04-20T06:59:05.830Z,20.39
2023-04-20T07:00:05.847Z,20.42
2023-04-20T07:01:05.844Z,20.58
2023-04-20T07:02:06.136Z,20.54
2023-04-20T07:03:05.938Z,20.54
2023-04-20T07:04:05.933Z,20.59
2023-04-20T07:05:05.837Z,20.62
2023-04-20T07:06:05.834Z,20.69
2023-04-20T07:07:05.847Z,20.61
2023-04-20T07:08:05.844Z,20.74
2023-04-20T07:09:05.838Z,20.80
2023-04-20T07:10:05.840Z,20.76
2023-04-20T07:11:05.863Z,20.80
2023-04-20T07:12:05.859Z,20.81
2023-04-20T07:13:05.833Z,20.76
2023-04-20T07:14:05.858Z,20.89
2023-04-20T07:15:05.849Z,20.87
2023-04-20T07:16:05.876Z,20.87
2023-04-20T07:17:05.844Z,20.91
2023-04-20T07:18:05.909Z,20.96
2023-04-20T07:19:05.849Z,21.01
2023-04-20T07:20:05.855Z,20.99
2023-04-20T07:21:05.843Z,20.99
2023-04-20T07:22:05.854Z,21.04
2023-04-20T07:23:05.849Z,21.04
2023-04-20T07:24:05.859Z,20.99
2023-04-20T07:25:05.849Z,20.98
2023-04-20T07:26:05.853Z,21.01
2023-04-20T07:27:05.950Z,21.04
2023-04-20T07:28:05.849Z,20.98
2023-04-20T07:29:05.853Z,21.06
2023-04-20T07:30:05.855Z,21.08
2023-04-20T07:31:06.058Z,21.04
2023-04-20T07:32:05.912Z,21.16
2023-04-20T07:33:05.924Z,21.14
2023-04-20T07:34:05.858Z,21.01
2023-04-20T07:35:05.877Z,20.76
2023-04-20T07:36:05.860Z,20.24
2023-04-20T07:37:05.861Z,19.95
2023-04-20T07:38:05.859Z,19.84
2023-04-20T07:39:05.857Z,19.73
2023-04-20T07:40:05.878Z,19.57
2023-04-20T07:41:05.860Z,19.58
2023-04-20T07:42:05.863Z,19.42
2023-04-20T07:43:05.943Z,19.32
2023-04-20T07:44:05.869Z,19.32
2023-04-20T07:45:05.931Z,19.28
2023-04-20T07:46:05.919Z,19.15
2023-04-20T07:47:05.872Z,19.18
2023-04-20T07:48:05.891Z,19.21
2023-04-20T07:49:05.878Z,19.14
2023-04-20T07:50:05.913Z,19.02
2023-04-20T07:51:05.927Z,19.08
2023-04-20T07:52:15.706Z,19.06
2023-04-20T07:53:05.881Z,19.10
2023-04-20T07:54:05.874Z,19.08
2023-04-20T07:55:05.893Z,19.13
2023-04-20T07:56:05.886Z,19.21
2023-04-20T07:57:05.889Z,19.28
2023-04-20T07:58:05.877Z,19.25
2023-04-20T07:59:05.900Z,19.31
2023-04-20T08:00:05.907Z,19.32
2023-04-20T08:01:05.884Z,19.40
2023-04-20T08:02:05.981Z,19.39
2023-04-20T08:03:06.079Z,19.33
2023-04-20T08:04:06.101Z,19.39
2023-04-20T08:05:06.194Z,19.33
2023-04-20T08:06:06.312Z,19.35
2023-04-20T08:07:05.891Z,19.31
2023-04-20T08:08:05.887Z,19.36
2023-04-20T08:09:05.882Z,19.23
2023-04-20T08:10:06.140Z,19.21
2023-04-20T08:11:05.951Z,19.25
2023-04-20T08:12:05.885Z,19.53
2023-04-20T08:13:05.890Z,19.78
2023-04-20T08:14:05.887Z,19.98
2023-04-20T08:15:05.909Z,20.23
2023-04-20T08:16:05.918Z,20.24
2023-04-20T08:17:05.885Z,20.35
2023-04-20T08:18:06.035Z,20.47
2023-04-20T08:19:05.888Z,20.56
2023-04-20T08:20:05.954Z,20.64
2023-04-20T08:21:05.901Z,20.79
2023-04-20T08:22:05.888Z,20.72
2023-04-20T08:23:06.026Z,20.83
2023-04-20T08:24:05.913Z,20.83
2023-04-20T08:25:05.941Z,20.87
2023-04-20T08:26:06.049Z,20.89
2023-04-20T08:27:05.891Z,20.96
2023-04-20T08:28:08.627Z,21.01
2023-04-20T08:29:05.897Z,20.99
2023-04-20T08:30:05.935Z,20.99
2023-04-20T08:31:06.205Z,21.02
2023-04-20T08:32:05.906Z,20.99
2023-04-20T08:33:05.972Z,20.98
2023-04-20T08:34:05.910Z,20.96
2023-04-20T08:35:05.903Z,20.99
2023-04-20T08:36:05.917Z,21.06
2023-04-20T08:37:05.902Z,21.05
2023-04-20T08:38:05.908Z,21.17
2023-04-20T08:39:05.910Z,21.05
2023-04-20T08:40:05.958Z,21.05
2023-04-20T08:41:05.906Z,21.09
2023-04-20T08:42:05.911Z,21.16
2023-04-20T08:43:05.909Z,21.20
2023-04-20T08:44:05.918Z,21.17
2023-04-20T08:45:06.079Z,21.16
2023-04-20T08:46:05.999Z,21.11
2023-04-20T08:47:06.014Z,21.17
2023-04-20T08:48:05.937Z,21.23
2023-04-20T08:49:05.926Z,21.16
2023-04-20T08:50:05.945Z,21.16
2023-04-20T08:51:05.923Z,21.29
2023-04-20T08:52:05.919Z,21.26
2023-04-20T08:53:05.916Z,21.19
2023-04-20T08:54:06.034Z,21.24
2023-04-20T08:55:05.928Z,21.27
2023-04-20T08:56:05.925Z,21.26
2023-04-20T08:57:05.923Z,21.29
2023-04-20T08:58:05.921Z,21.26
2023-04-20T08:59:05.925Z,21.24
2023-04-20T09:00:05.943Z,21.29
2023-04-20T09:01:06.230Z,21.32
2023-04-20T09:02:05.987Z,21.30
2023-04-20T09:03:06.200Z,21.34
2023-04-20T09:04:06.068Z,21.32
2023-04-20T09:05:06.022Z,21.34
2023-04-20T09:06:05.933Z,21.27
2023-04-20T09:07:05.940Z,21.36
2023-04-20T09:08:05.936Z,21.30
2023-04-20T09:09:05.936Z,21.26
2023-04-20T09:10:05.969Z,21.39
2023-04-20T09:11:05.951Z,21.39
2023-04-20T09:12:05.936Z,21.29
2023-04-20T09:13:05.944Z,21.38
2023-04-20T09:14:05.943Z,21.24
2023-04-20T09:15:05.950Z,21.44
2023-04-20T09:16:05.974Z,21.39
2023-04-20T09:17:05.947Z,21.44
2023-04-20T09:18:05.990Z,21.41
2023-04-20T09:19:07.745Z,21.36
2023-04-20T09:20:05.959Z,21.41
2023-04-20T09:21:05.952Z,21.30
2023-04-20T09:22:05.955Z,21.42
2023-04-20T09:23:05.950Z,21.41
2023-04-20T09:24:05.958Z,21.36
2023-04-20T09:25:05.974Z,21.38
2023-04-20T09:26:05.965Z,21.41
2023-04-20T09:27:05.960Z,21.50
2023-04-20T09:28:05.971Z,21.45
2023-04-20T09:29:05.973Z,21.45
2023-04-20T09:30:06.010Z,21.46
2023-04-20T09:31:05.967Z,21.48
2023-04-20T09:32:06.151Z,21.46
2023-04-20T09:33:06.045Z,21.54
2023-04-20T09:34:05.973Z,21.50
2023-04-20T09:35:06.060Z,21.56
2023-04-20T09:36:05.998Z,21.53
2023-04-20T09:37:07.302Z,21.56
2023-04-20T09:38:06.006Z,21.56
2023-04-20T09:39:05.982Z,21.56
2023-04-20T09:40:06.050Z,21.57
2023-04-20T09:41:05.986Z,21.59
2023-04-20T09:42:05.980Z,21.59
2023-04-20T09:43:05.986Z,21.63
2023-04-20T09:44:05.990Z,21.59
2023-04-20T09:45:05.999Z,21.63
2023-04-20T09:46:06.067Z,21.63
2023-04-20T09:47:05.987Z,21.63
2023-04-20T09:48:06.008Z,21.61
2023-04-20T09:49:05.993Z,21.66
2023-04-20T09:50:19.276Z,21.69
2023-04-20T09:51:06.039Z,21.67
2023-04-20T09:52:06.000Z,21.71
2023-04-20T09:53:06.001Z,21.81
2023-04-20T09:54:06.000Z,21.81
2023-04-20T09:55:06.007Z,21.78
2023-04-20T09:56:06.008Z,21.78
2023-04-20T09:57:06.015Z,21.78
2023-04-20T09:58:06.008Z,21.82
2023-04-20T09:59:06.009Z,21.81
2023-04-20T10:00:06.013Z,21.83
2023-04-20T10:01:06.054Z,21.83
2023-04-20T10:02:06.054Z,21.83
2023-04-20T10:03:06.123Z,21.88
2023-04-20T10:04:06.320Z,21.90
2023-04-20T10:05:06.024Z,21.88
2023-04-20T10:06:06.036Z,21.83
2023-04-20T10:07:06.056Z,21.91
2023-04-20T10:08:06.024Z,21.91
2023-04-20T10:09:06.033Z,21.88
2023-04-20T10:10:06.026Z,21.95
2023-04-20T10:11:06.031Z,21.92
2023-04-20T10:12:06.041Z,21.92
2023-04-20T10:13:06.044Z,21.94
2023-04-20T10:14:06.039Z,21.92
2023-04-20T10:15:06.086Z,21.92
2023-04-20T10:16:06.041Z,22.04
2023-04-20T10:17:06.148Z,21.95
2023-04-20T10:18:06.104Z,21.98
2023-04-20T10:19:08.962Z,21.94
2023-04-20T10:20:06.061Z,21.92
2023-04-20T10:21:06.049Z,21.94
2023-04-20T10:22:06.076Z,21.85
2023-04-20T10:23:06.188Z,21.94
2023-04-20T10:24:06.059Z,21.97
2023-04-20T10:25:06.064Z,21.94
2023-04-20T10:26:06.088Z,21.99
2023-04-20T10:27:06.070Z,21.94
2023-04-20T10:28:06.064Z,22.01
2023-04-20T10:29:06.070Z,21.99
2023-04-20T10:30:06.066Z,21.94
2023-04-20T10:31:06.099Z,21.98
2023-04-20T10:32:06.072Z,21.94
2023-04-20T10:33:06.122Z,21.97
2023-04-20T10:34:06.088Z,22.04
2023-04-20T10:35:06.091Z,21.99
2023-04-20T10:36:06.081Z,22.04
2023-04-20T10:37:06.086Z,21.99
2023-04-20T10:38:06.082Z,22.07
2023-04-20T10:39:06.143Z,21.99
2023-04-20T10:40:07.942Z,22.13
2023-04-20T10:41:06.102Z,22.06
2023-04-20T10:42:06.095Z,22.13
2023-04-20T10:43:06.095Z,22.14
2023-04-20T10:44:06.111Z,22.13
2023-04-20T10:45:06.109Z,22.10
2023-04-20T10:46:06.156Z,22.07
2023-04-20T10:47:06.106Z,22.14
2023-04-20T10:48:06.169Z,22.12
2023-04-20T10:49:06.108Z,22.09
2023-04-20T10:50:06.113Z,22.13
2023-04-20T10:51:06.114Z,22.07
2023-04-20T10:52:06.372Z,22.16
2023-04-20T10:53:06.123Z,22.17
2023-04-20T10:54:06.169Z,22.16
2023-04-20T10:55:06.312Z,22.17
2023-04-20T10:56:06.131Z,22.17
2023-04-20T10:57:06.141Z,22.16
2023-04-20T10:58:06.133Z,22.19
2023-04-20T10:59:06.152Z,22.12
2023-04-20T11:00:06.172Z,22.12
2023-04-20T11:01:06.155Z,22.13
2023-04-20T11:02:06.204Z,22.16
2023-04-20T11:03:06.210Z,22.13
2023-04-20T11:04:06.144Z,22.14
2023-04-20T11:05:06.225Z,22.19
2023-04-20T11:06:06.154Z,22.27
2023-04-20T11:07:06.149Z,22.28
2023-04-20T11:08:06.159Z,22.25
2023-04-20T11:09:06.164Z,22.27
2023-04-20T11:10:06.163Z,22.27
2023-04-20T11:11:06.220Z,22.29
2023-04-20T11:12:06.167Z,22.31
2023-04-20T11:13:06.166Z,22.25
2023-04-20T11:14:06.164Z,22.28
2023-04-20T11:15:06.204Z,22.25
2023-04-20T11:16:06.252Z,22.31
2023-04-20T11:17:06.226Z,22.28
2023-04-20T11:18:06.258Z,22.39
2023-04-20T11:19:06.183Z,22.35
2023-04-20T11:20:06.244Z,22.32
2023-04-20T11:21:06.192Z,22.41
2023-04-20T11:22:06.197Z,22.37
2023-04-20T11:23:06.229Z,22.37
2023-04-20T11:24:06.191Z,22.37
2023-04-20T11:25:06.195Z,22.37
2023-04-20T11:26:06.195Z,22.41
2023-04-20T11:27:06.264Z,22.38
2023-04-20T11:28:06.198Z,22.44
2023-04-20T11:29:06.203Z,22.43
2023-04-20T11:30:06.254Z,22.43
2023-04-20T11:31:06.236Z,22.34
2023-04-20T11:32:06.336Z,22.37
2023-04-20T11:33:06.316Z,22.27
2023-04-20T11:34:07.188Z,22.28
2023-04-20T11:35:07.249Z,22.29
2023-04-20T11:36:06.218Z,22.29
2023-04-20T11:37:06.224Z,22.19
2023-04-20T11:38:06.226Z,22.23
2023-04-20T11:39:06.227Z,22.20
2023-04-20T11:40:06.229Z,22.27
2023-04-20T11:41:06.232Z,22.19
2023-04-20T11:42:06.242Z,22.16
2023-04-20T11:43:06.273Z,22.23
2023-04-20T11:44:06.236Z,22.27
2023-04-20T11:45:06.231Z,22.13
2023-04-20T11:46:06.280Z,22.19
2023-04-20T11:47:06.366Z,22.17
2023-04-20T11:48:06.389Z,22.13
2023-04-20T11:49:06.246Z,22.19
2023-04-20T11:50:06.256Z,22.20
2023-04-20T11:51:06.258Z,22.19
2023-04-20T11:52:06.254Z,22.23
2023-04-20T11:53:06.258Z,22.16
2023-04-20T11:54:06.294Z,22.13
2023-04-20T11:55:06.310Z,22.16
2023-04-20T11:56:06.282Z,22.29
2023-04-20T11:57:06.275Z,22.31
2023-04-20T11:58:06.268Z,22.10
2023-04-20T11:59:06.297Z,22.13
2023-04-20T12:00:06.272Z,22.25
2023-04-20T12:01:06.272Z,22.20
2023-04-20T12:02:06.358Z,22.22
2023-04-20T12:03:06.466Z,22.27
2023-04-20T12:04:06.530Z,22.31
2023-04-20T12:05:06.519Z,22.34
2023-04-20T12:06:06.307Z,22.25
2023-04-20T12:07:06.298Z,22.34
2023-04-20T12:08:06.445Z,22.32
2023-04-20T12:09:06.342Z,22.27
2023-04-20T12:10:06.297Z,22.35
2023-04-20T12:11:06.295Z,22.35
2023-04-20T12:12:06.293Z,22.25
2023-04-20T12:13:06.301Z,22.27
2023-04-20T12:14:06.310Z,22.28
2023-04-20T12:15:06.327Z,22.28
2023-04-20T12:16:06.463Z,22.28
2023-04-20T12:17:06.341Z,22.27
2023-04-20T12:18:06.383Z,22.25
2023-04-20T12:19:06.331Z,22.22
2023-04-20T12:20:06.324Z,22.29
2023-04-20T12:21:06.337Z,22.31
2023-04-20T12:22:06.332Z,22.29
2023-04-20T12:23:06.330Z,22.22
2023-04-20T12:24:06.330Z,22.27
2023-04-20T12:25:06.326Z,22.25
2023-04-20T12:26:06.328Z,22.28
2023-04-20T12:27:06.345Z,22.31
2023-04-20T12:28:06.348Z,22.27
2023-04-20T12:29:06.338Z,22.25
2023-04-20T12:30:06.336Z,22.23
2023-04-20T12:31:06.459Z,22.19
2023-04-20T12:32:06.356Z,22.27
2023-04-20T12:33:06.369Z,22.17
2023-04-20T12:34:06.340Z,22.23
2023-04-20T12:35:06.352Z,22.17
2023-04-20T12:36:06.345Z,22.25
2023-04-20T12:37:06.354Z,22.09
2023-04-20T12:38:06.360Z,22.02
2023-04-20T12:39:06.359Z,22.07
2023-04-20T12:40:06.382Z,21.99
2023-04-20T12:41:06.358Z,22.12
2023-04-20T12:42:06.363Z,22.12
2023-04-20T12:43:06.364Z,22.09
2023-04-20T12:44:07.684Z,22.19
2023-04-20T12:45:06.372Z,22.27
2023-04-20T12:46:06.378Z,22.19
2023-04-20T12:47:06.618Z,22.13
2023-04-20T12:48:06.459Z,22.16
2023-04-20T12:49:06.389Z,22.25
2023-04-20T12:50:06.395Z,22.25
2023-04-20T12:51:06.381Z,22.23
2023-04-20T12:52:08.121Z,22.25